createdAt,value
2022-11-15T00:02:43.883Z,3.40
2022-11-15T00:05:36.989Z,3.30
2022-11-15T00:08:30.899Z,3.30
2022-11-15T00:11:21.309Z,3.30
2022-11-15T00:14:11.541Z,3.20
2022-11-15T00:17:01.818Z,1.40
2022-11-15T00:19:52.217Z,3.20
2022-11-15T00:22:42.621Z,3.20
2022-11-15T00:25:33.650Z,3.20
2022-11-15T00:28:24.433Z,3.10
2022-11-15T00:31:15.642Z,3.10
2022-11-15T00:34:05.822Z,3.10
2022-11-15T00:36:56.248Z,3.10
2022-11-15T00:39:46.801Z,3.10
2022-11-15T00:42:37.326Z,3.10
2022-11-15T00:45:27.956Z,3.10
2022-11-15T00:48:18.269Z,3.00
2022-11-15T00:51:08.734Z,2.90
2022-11-15T00:53:58.938Z,2.90
2022-11-15T00:56:49.562Z,2.80
2022-11-15T00:59:39.792Z,2.80
2022-11-15T01:02:30.278Z,2.80
2022-11-15T01:05:21.083Z,2.80
2022-11-15T01:08:16.498Z,2.80
2022-11-15T01:11:10.377Z,2.90
2022-11-15T01:14:00.512Z,2.90
2022-11-15T01:16:50.933Z,2.80
2022-11-15T01:19:41.470Z,2.80
2022-11-15T01:22:32.040Z,2.80
2022-11-15T01:25:22.354Z,2.80
2022-11-15T01:28:12.772Z,2.80
2022-11-15T01:31:06.335Z,2.80
2022-11-15T01:33:56.751Z,2.70
2022-11-15T01:36:49.075Z,2.70
2022-11-15T01:39:39.182Z,2.70
2022-11-15T01:42:29.580Z,2.70
2022-11-15T01:45:19.907Z,2.60
2022-11-15T01:48:11.941Z,2.60
2022-11-15T01:51:09.049Z,2.50
2022-11-15T01:54:08.014Z,2.50
2022-11-15T01:57:02.659Z,2.40
2022-11-15T01:59:53.418Z,2.30
2022-11-15T02:02:44.016Z,2.30
2022-11-15T02:05:36.052Z,2.20
2022-11-15T02:08:26.646Z,2.20
2022-11-15T02:11:17.471Z,2.20
2022-11-15T02:14:09.480Z,2.10
2022-11-15T02:17:18.072Z,2.10
2022-11-15T02:20:11.883Z,2.10
2022-11-15T02:23:20.904Z,2.20
2022-11-15T02:26:38.565Z,2.20
2022-11-15T02:29:47.249Z,2.30
2022-11-15T02:32:37.470Z,2.30
2022-11-15T02:35:49.870Z,2.40
2022-11-15T02:39:08.393Z,2.30
2022-11-15T02:42:04.630Z,2.30
2022-11-15T02:44:58.111Z,2.20
2022-11-15T02:47:51.207Z,2.20
2022-11-15T02:50:43.274Z,2.20
2022-11-15T02:53:34.259Z,2.30
2022-11-15T02:56:24.638Z,2.30
2022-11-15T02:59:20.124Z,2.30
2022-11-15T03:02:32.487Z,2.20
2022-11-15T03:06:00.527Z,2.10
2022-11-15T03:08:58.927Z,2.10
2022-11-15T03:12:02.018Z,2.00
2022-11-15T03:15:05.055Z,2.00
2022-11-15T03:18:22.436Z,2.00
2022-11-15T03:21:15.556Z,2.00
2022-11-15T03:24:09.100Z,2.00
2022-11-15T03:27:01.347Z,2.00
2022-11-15T03:30:00.511Z,2.00
2022-11-15T03:33:01.054Z,2.10
2022-11-15T03:35:52.648Z,2.00
2022-11-15T03:38:44.115Z,2.00
2022-11-15T03:41:49.966Z,2.00
2022-11-15T03:45:06.948Z,2.00
2022-11-15T03:48:06.077Z,2.00
2022-11-15T03:50:57.260Z,2.10
2022-11-15T03:53:47.682Z,2.10
2022-11-15T03:56:38.040Z,2.10
2022-11-15T03:59:28.543Z,2.10
2022-11-15T04:02:18.951Z,2.10
2022-11-15T04:05:09.407Z,2.10
2022-11-15T04:07:59.752Z,2.10
2022-11-15T04:10:50.577Z,2.00
2022-11-15T04:13:40.875Z,2.00
2022-11-15T04:16:31.347Z,2.00
2022-11-15T04:19:40.314Z,2.00
2022-11-15T04:22:49.403Z,2.00
2022-11-15T04:25:40.055Z,2.00
2022-11-15T04:28:31.145Z,2.00
2022-11-15T04:31:21.610Z,2.00
2022-11-15T04:34:12.024Z,2.00
2022-11-15T04:37:14.520Z,2.00
2022-11-15T04:40:05.192Z,2.00
2022-11-15T04:43:02.246Z,2.00
2022-11-15T04:45:53.776Z,1.90
2022-11-15T04:48:44.403Z,1.90
2022-11-15T04:51:34.911Z,2.00
2022-11-15T04:54:25.404Z,2.10
2022-11-15T04:57:16.116Z,2.10
2022-11-15T05:00:09.637Z,2.20
2022-11-15T05:03:18.029Z,2.20
2022-11-15T05:06:08.656Z,2.20
2022-11-15T05:08:59.079Z,2.10
2022-11-15T05:11:49.751Z,2.00
2022-11-15T05:14:40.053Z,2.00
2022-11-15T05:17:30.539Z,2.00
2022-11-15T05:20:20.839Z,2.10
2022-11-15T05:23:11.375Z,2.10
2022-11-15T05:26:08.874Z,2.00
2022-11-15T05:29:00.369Z,2.00
2022-11-15T05:31:51.048Z,2.00
2022-11-15T05:34:41.627Z,1.90
2022-11-15T05:37:31.762Z,1.80
2022-11-15T05:40:22.202Z,1.80
2022-11-15T05:43:12.807Z,1.80
2022-11-15T05:46:05.260Z,1.90
2022-11-15T05:48:57.261Z,1.90
2022-11-15T05:51:49.315Z,1.80
2022-11-15T05:54:40.127Z,1.80
2022-11-15T05:57:30.708Z,1.80
2022-11-15T06:00:21.207Z,1.80
2022-11-15T06:03:11.828Z,1.70
2022-11-15T06:06:02.334Z,1.80
2022-11-15T06:08:52.639Z,1.80
2022-11-15T06:11:43.130Z,1.90
2022-11-15T06:14:33.553Z,2.00
2022-11-15T06:17:23.955Z,1.90
2022-11-15T06:20:14.316Z,1.90
2022-11-15T06:23:05.842Z,1.90
2022-11-15T06:25:59.149Z,1.90
2022-11-15T06:28:49.632Z,1.90
2022-11-15T06:31:39.934Z,1.90
2022-11-15T06:34:30.280Z,1.80
2022-11-15T06:37:20.877Z,1.80
2022-11-15T06:40:11.969Z,1.80
2022-11-15T06:43:02.771Z,1.80
2022-11-15T06:45:52.994Z,1.90
2022-11-15T06:48:43.336Z,1.90
2022-11-15T06:51:33.663Z,2.00
2022-11-15T06:54:24.058Z,2.00
2022-11-15T06:57:14.511Z,1.90
2022-11-15T07:00:06.268Z,2.00
2022-11-15T07:03:00.247Z,2.00
2022-11-15T07:05:55.626Z,2.10
2022-11-15T07:08:46.647Z,2.10
2022-11-15T07:11:37.103Z,2.10
2022-11-15T07:14:27.601Z,2.00
2022-11-15T07:17:18.036Z,2.10
2022-11-15T07:20:08.744Z,2.10
2022-11-15T07:23:06.107Z,2.20
2022-11-15T07:25:59.202Z,2.20
2022-11-15T07:28:49.385Z,2.30
2022-11-15T07:31:40.047Z,2.40
2022-11-15T07:34:30.252Z,2.50
2022-11-15T07:37:20.567Z,2.40
2022-11-15T07:40:11.355Z,2.50
2022-11-15T07:43:03.025Z,2.50
2022-11-15T07:45:58.659Z,2.60
2022-11-15T07:48:49.344Z,2.70
2022-11-15T07:51:39.706Z,2.70
2022-11-15T07:54:30.332Z,2.70
2022-11-15T07:57:20.699Z,2.70
2022-11-15T08:00:11.834Z,2.70
2022-11-15T08:03:13.636Z,2.70
2022-11-15T08:06:04.545Z,5.10
2022-11-15T08:08:54.838Z,2.90
2022-11-15T08:11:45.357Z,3.00
2022-11-15T08:14:36.316Z,3.00
2022-11-15T08:17:26.832Z,3.10
2022-11-15T08:20:17.100Z,3.10
2022-11-15T08:23:08.684Z,3.20
2022-11-15T08:26:04.175Z,3.40
2022-11-15T08:28:54.583Z,3.60
2022-11-15T08:31:44.975Z,3.60
2022-11-15T08:34:35.510Z,3.50
2022-11-15T08:37:25.921Z,3.40
2022-11-15T08:40:17.316Z,3.40
2022-11-15T08:43:07.612Z,3.40
2022-11-15T08:45:58.397Z,3.40
2022-11-15T08:48:48.840Z,3.40
2022-11-15T08:51:39.282Z,3.60
2022-11-15T08:54:29.655Z,3.80
2022-11-15T08:57:20.137Z,4.00
2022-11-15T09:00:12.751Z,4.30
2022-11-15T09:03:06.034Z,4.40
2022-11-15T09:06:01.509Z,4.60
2022-11-15T09:08:52.361Z,4.70
2022-11-15T09:11:42.716Z,4.90
2022-11-15T09:14:33.739Z,5.10
2022-11-15T09:20:34.837Z,5.50
2022-11-15T09:23:25.449Z,5.60
2022-11-15T09:26:15.939Z,5.80
2022-11-15T09:29:06.828Z,5.90
2022-11-15T09:31:56.900Z,6.10
2022-11-15T09:34:47.211Z,6.40
2022-11-15T09:37:37.719Z,6.70
2022-11-15T09:40:28.657Z,6.80
2022-11-15T09:43:36.446Z,6.70
2022-11-15T09:47:03.498Z,6.70
2022-11-15T09:50:01.119Z,6.80
2022-11-15T09:52:42.427Z,7.00
2022-11-15T09:55:22.193Z,7.10
2022-11-15T09:58:16.774Z,7.10
2022-11-15T10:00:53.693Z,7.30
2022-11-15T10:03:51.692Z,7.40
2022-11-15T10:06:26.641Z,7.60
2022-11-15T10:09:31.106Z,7.80
2022-11-15T10:12:03.302Z,8.00
2022-11-15T10:14:36.561Z,8.10
2022-11-15T10:17:38.576Z,8.10
2022-11-15T10:20:20.770Z,8.10
2022-11-15T10:22:57.015Z,8.20
2022-11-15T10:25:30.984Z,8.40
2022-11-15T10:28:16.469Z,8.60
2022-11-15T10:30:54.387Z,8.80
2022-11-15T10:33:40.419Z,8.90
2022-11-15T10:36:17.055Z,9.00
2022-11-15T10:38:53.872Z,9.00
2022-11-15T10:41:28.504Z,9.10
2022-11-15T10:44:11.755Z,9.20
2022-11-15T10:46:56.778Z,9.30
2022-11-15T10:49:30.776Z,9.30
2022-11-15T10:52:03.956Z,9.40
2022-11-15T10:55:03.697Z,9.40
2022-11-15T10:57:39.443Z,9.50
2022-11-15T11:00:20.427Z,9.60
2022-11-15T11:03:01.892Z,9.70
2022-11-15T11:05:41.654Z,9.80
2022-11-15T11:08:14.589Z,9.90
2022-11-15T11:11:03.039Z,9.90
2022-11-15T11:13:40.357Z,10.00
2022-11-15T11:16:15.189Z,10.10
2022-11-15T11:18:46.868Z,10.00
2022-11-15T11:21:41.508Z,10.00
2022-11-15T11:24:43.696Z,10.00
2022-11-15T11:27:27.866Z,10.10
2022-11-15T11:30:31.181Z,10.30
2022-11-15T11:33:13.038Z,10.50
2022-11-15T11:36:00.584Z,10.60
2022-11-15T11:38:59.152Z,10.70
2022-11-15T11:41:44.137Z,10.80
2022-11-15T11:44:39.720Z,10.80
2022-11-15T11:47:20.392Z,10.90
2022-11-15T11:49:53.749Z,10.90
2022-11-15T11:52:42.453Z,11.00
2022-11-15T11:55:38.908Z,11.10
2022-11-15T11:58:22.403Z,11.20
2022-11-15T12:01:06.258Z,11.30
2022-11-15T12:03:54.476Z,11.20
2022-11-15T12:06:34.906Z,11.20
2022-11-15T12:09:37.502Z,11.20
2022-11-15T12:12:14.972Z,11.20
2022-11-15T12:15:02.056Z,11.30
2022-11-15T12:17:34.037Z,11.30
2022-11-15T12:20:20.240Z,11.40
2022-11-15T12:23:16.590Z,11.40
2022-11-15T12:25:51.550Z,9.20
2022-11-15T12:28:36.383Z,11.60
2022-11-15T12:31:17.436Z,11.50
2022-11-15T12:33:50.392Z,11.50
2022-11-15T12:36:22.055Z,11.50
2022-11-15T12:39:03.693Z,11.40
2022-11-15T12:41:40.002Z,11.60
2022-11-15T12:44:38.470Z,11.60
2022-11-15T12:47:10.206Z,11.60
2022-11-15T12:49:41.892Z,11.70
2022-11-15T12:52:14.065Z,11.70
2022-11-15T12:55:00.559Z,11.70
2022-11-15T12:57:40.230Z,11.80
2022-11-15T13:00:14.827Z,11.80
2022-11-15T13:02:48.379Z,11.80
2022-11-15T13:05:20.387Z,11.80
2022-11-15T13:07:59.377Z,11.80
2022-11-15T13:10:33.728Z,11.80
2022-11-15T13:13:09.248Z,11.80
2022-11-15T13:15:54.815Z,11.70
2022-11-15T13:18:37.177Z,11.70
2022-11-15T13:21:43.786Z,11.70
2022-11-15T13:24:17.937Z,11.60
2022-11-15T13:26:50.138Z,11.60
2022-11-15T13:29:21.940Z,11.60
2022-11-15T13:31:53.877Z,11.60
2022-11-15T13:34:53.228Z,11.50
2022-11-15T13:37:25.158Z,11.50
2022-11-15T13:40:33.735Z,11.40
2022-11-15T13:43:24.025Z,11.50
2022-11-15T13:46:28.862Z,11.40
2022-11-15T13:49:01.720Z,11.40
2022-11-15T13:51:51.685Z,11.40
2022-11-15T13:54:35.891Z,11.40
2022-11-15T13:57:23.689Z,11.40
2022-11-15T14:00:04.811Z,11.40
2022-11-15T14:02:43.559Z,11.40
2022-11-15T14:05:17.106Z,11.40
2022-11-15T14:07:57.729Z,11.40
2022-11-15T14:10:31.690Z,11.30
2022-11-15T14:13:04.714Z,11.30
2022-11-15T14:15:38.623Z,11.20
2022-11-15T14:18:59.443Z,11.10
2022-11-15T14:21:31.605Z,11.10
2022-11-15T14:24:22.222Z,11.00
2022-11-15T14:26:54.270Z,10.80
2022-11-15T14:29:27.897Z,10.70
2022-11-15T14:32:40.284Z,10.70
2022-11-15T14:35:21.740Z,10.60
2022-11-15T14:37:53.470Z,10.50
2022-11-15T14:40:25.258Z,10.40
2022-11-15T14:42:57.016Z,10.30
2022-11-15T14:45:28.947Z,10.20
2022-11-15T14:48:00.673Z,10.10
2022-11-15T14:50:33.691Z,10.00
2022-11-15T14:53:06.144Z,10.00
2022-11-15T14:55:38.067Z,9.90
2022-11-15T14:58:10.360Z,9.90
2022-11-15T15:00:42.751Z,9.80
2022-11-15T15:03:14.584Z,9.70
2022-11-15T15:05:46.420Z,9.60
2022-11-15T15:08:18.289Z,9.60
2022-11-15T15:10:50.100Z,9.50
2022-11-15T15:13:24.246Z,9.40
2022-11-15T15:15:55.957Z,9.30
2022-11-15T15:18:27.723Z,9.30
2022-11-15T15:21:03.532Z,9.20
2022-11-15T15:23:36.570Z,9.20
2022-11-15T15:26:08.415Z,9.10
2022-11-15T15:28:40.553Z,9.00
2022-11-15T15:31:12.765Z,8.90
2022-11-15T15:33:44.796Z,8.90
2022-11-15T15:36:19.637Z,8.80
2022-11-15T15:38:51.376Z,8.70
2022-11-15T15:41:24.021Z,8.60
2022-11-15T15:43:55.818Z,8.50
2022-11-15T15:46:27.668Z,8.40
2022-11-15T15:48:59.452Z,8.30
2022-11-15T15:51:31.194Z,8.30
2022-11-15T15:54:02.905Z,8.20
2022-11-15T15:56:34.609Z,8.10
2022-11-15T15:59:06.392Z,8.10
2022-11-15T16:01:38.178Z,8.00
2022-11-15T16:04:10.050Z,8.00
2022-11-15T16:06:45.092Z,7.90
2022-11-15T16:09:18.822Z,7.80
2022-11-15T16:11:51.058Z,7.70
2022-11-15T16:14:22.799Z,7.70
2022-11-15T16:16:54.774Z,7.60
2022-11-15T16:19:26.808Z,7.50
2022-11-15T16:21:58.549Z,7.50
2022-11-15T16:24:30.308Z,9.00
2022-11-15T16:27:02.657Z,7.30
2022-11-15T16:29:34.571Z,7.30
2022-11-15T16:32:06.568Z,7.20
2022-11-15T16:34:42.809Z,7.20
2022-11-15T16:37:25.608Z,7.20
2022-11-15T16:40:01.002Z,7.10
2022-11-15T16:42:33.070Z,7.00
2022-11-15T16:45:05.289Z,7.00
2022-11-15T16:47:37.062Z,6.90
2022-11-15T16:50:23.939Z,6.90
2022-11-15T16:52:58.267Z,6.90
2022-11-15T16:55:30.570Z,6.80
2022-11-15T16:58:02.423Z,6.80
2022-11-15T17:00:34.215Z,6.70
2022-11-15T17:03:06.269Z,6.70
2022-11-15T17:05:38.188Z,6.60
2022-11-15T17:08:10.169Z,6.60
2022-11-15T17:10:42.208Z,6.50
2022-11-15T17:13:14.772Z,6.50
2022-11-15T17:15:46.784Z,6.40
2022-11-15T17:18:19.430Z,6.40
2022-11-15T17:20:51.149Z,6.30
2022-11-15T17:23:22.989Z,6.30
2022-11-15T17:26:17.842Z,6.30
2022-11-15T17:28:57.249Z,6.30
2022-11-15T17:31:30.934Z,6.20
2022-11-15T17:34:04.205Z,6.20
2022-11-15T17:36:36.340Z,6.20
2022-11-15T17:39:08.146Z,6.10
2022-11-15T17:41:39.856Z,6.10
2022-11-15T17:44:11.559Z,6.00
2022-11-15T17:46:44.441Z,6.00
2022-11-15T17:49:16.189Z,5.90
2022-11-15T17:51:50.176Z,5.90
2022-11-15T17:54:22.048Z,5.80
2022-11-15T17:56:53.826Z,5.80
2022-11-15T17:59:25.580Z,5.80
2022-11-15T18:01:57.321Z,5.70
2022-11-15T18:04:29.115Z,5.70
2022-11-15T18:07:00.878Z,5.70
2022-11-15T18:09:32.633Z,5.70
2022-11-15T18:12:04.625Z,5.60
2022-11-15T18:14:36.700Z,5.60
2022-11-15T18:17:08.416Z,5.60
2022-11-15T18:19:40.555Z,5.60
2022-11-15T18:22:12.309Z,5.70
2022-11-15T18:24:44.821Z,5.80
2022-11-15T18:27:16.555Z,5.90
2022-11-15T18:29:48.321Z,5.90
2022-11-15T18:32:20.085Z,5.90
2022-11-15T18:34:52.312Z,5.90
2022-11-15T18:37:24.158Z,5.90
2022-11-15T18:39:55.861Z,5.90
2022-11-15T18:42:30.422Z,5.90
2022-11-15T18:45:03.179Z,5.80
2022-11-15T18:47:35.117Z,5.80
2022-11-15T18:50:07.342Z,5.80
2022-11-15T18:52:39.080Z,5.80
2022-11-15T18:55:10.934Z,5.80
2022-11-15T18:57:42.704Z,5.80
2022-11-15T19:00:15.053Z,5.80
2022-11-15T19:02:46.774Z,5.80
2022-11-15T19:05:21.304Z,5.70
2022-11-15T19:07:53.084Z,5.80
2022-11-15T19:10:24.829Z,5.70
2022-11-15T19:12:56.630Z,5.60
2022-11-15T19:15:28.368Z,5.60
2022-11-15T19:18:01.622Z,5.60
2022-11-15T19:20:35.960Z,5.60
2022-11-15T19:23:07.678Z,5.60
2022-11-15T19:25:39.404Z,5.50
2022-11-15T19:28:11.853Z,5.50
2022-11-15T19:30:43.567Z,5.40
2022-11-15T19:33:15.324Z,5.40
2022-11-15T19:35:47.618Z,5.40
2022-11-15T19:38:19.349Z,5.40
2022-11-15T19:40:56.928Z,5.40
2022-11-15T19:43:29.828Z,5.30
2022-11-15T19:46:03.913Z,5.40
2022-11-15T19:48:35.718Z,5.30
2022-11-15T19:51:10.834Z,5.30
2022-11-15T19:53:43.207Z,5.30
2022-11-15T19:56:17.334Z,5.20
2022-11-15T19:58:54.204Z,5.20
2022-11-15T20:01:32.209Z,5.10
2022-11-15T20:04:04.061Z,5.10
2022-11-15T20:06:39.303Z,5.10
2022-11-15T20:09:16.544Z,5.10
2022-11-15T20:11:48.358Z,5.00
2022-11-15T20:14:20.242Z,5.00
2022-11-15T20:16:54.432Z,5.00
2022-11-15T20:19:26.458Z,5.00
2022-11-15T20:21:58.280Z,5.00
2022-11-15T20:24:31.200Z,5.00
2022-11-15T20:27:02.959Z,5.00
2022-11-15T20:29:34.712Z,5.00
2022-11-15T20:32:06.664Z,5.00
2022-11-15T20:34:38.752Z,4.90
2022-11-15T20:37:10.535Z,5.00
2022-11-15T20:39:42.319Z,5.00
2022-11-15T20:42:14.117Z,5.00
2022-11-15T20:44:45.925Z,5.00
2022-11-15T20:47:17.652Z,4.90
2022-11-15T20:49:49.416Z,4.90
2022-11-15T20:52:21.232Z,4.90
2022-11-15T20:54:52.980Z,4.90
2022-11-15T20:57:24.740Z,4.80
2022-11-15T20:59:56.569Z,4.80
2022-11-15T21:02:29.166Z,4.80
2022-11-15T21:05:01.044Z,4.80
2022-11-15T21:07:32.874Z,4.80
2022-11-15T21:10:23.313Z,4.80
2022-11-15T21:12:55.076Z,4.80
2022-11-15T21:15:26.782Z,4.80
2022-11-15T21:17:58.560Z,4.80
2022-11-15T21:20:30.349Z,4.80
2022-11-15T21:23:02.114Z,4.80
2022-11-15T21:25:34.359Z,4.80
2022-11-15T21:28:06.138Z,4.80
2022-11-15T21:30:37.888Z,4.80
2022-11-15T21:33:09.662Z,4.70
2022-11-15T21:35:42.860Z,5.40
2022-11-15T21:38:14.620Z,4.70
2022-11-15T21:40:46.540Z,4.70
2022-11-15T21:43:19.072Z,4.70
2022-11-15T21:46:04.405Z,4.70
2022-11-15T21:48:36.749Z,4.80
2022-11-15T21:51:12.579Z,4.80
2022-11-15T21:53:44.320Z,4.80
2022-11-15T21:56:16.278Z,4.80
2022-11-15T21:58:47.992Z,4.80
2022-11-15T22:01:38.433Z,4.70
2022-11-15T22:04:10.443Z,4.70
2022-11-15T22:06:42.176Z,4.70
2022-11-15T22:09:13.913Z,4.70
2022-11-15T22:11:45.622Z,4.70
2022-11-15T22:14:17.640Z,4.70
2022-11-15T22:16:49.358Z,4.70
2022-11-15T22:19:21.247Z,4.70
2022-11-15T22:21:53.082Z,4.80
2022-11-15T22:24:24.821Z,4.80
2022-11-15T22:26:56.562Z,4.80
2022-11-15T22:29:28.300Z,4.80
2022-11-15T22:32:00.089Z,4.80
2022-11-15T22:34:31.811Z,4.90
2022-11-15T22:37:19.767Z,4.90
2022-11-15T22:39:52.092Z,4.80
2022-11-15T22:42:24.251Z,4.80
2022-11-15T22:44:56.048Z,4.80
2022-11-15T22:47:27.809Z,4.90
2022-11-15T22:49:59.574Z,4.90
2022-11-15T22:52:31.297Z,4.90
2022-11-15T22:55:03.262Z,4.90
2022-11-15T22:57:38.145Z,4.90
2022-11-15T23:00:15.640Z,4.90
2022-11-15T23:02:51.783Z,5.00
2022-11-15T23:05:25.126Z,5.00
2022-11-15T23:07:56.855Z,5.10
2022-11-15T23:10:47.091Z,5.10
2022-11-15T23:13:19.035Z,5.20
2022-11-15T23:16:10.263Z,5.20
2022-11-15T23:18:42.292Z,5.20
2022-11-15T23:21:42.461Z,5.20
2022-11-15T23:24:14.919Z,5.20
2022-11-15T23:26:49.085Z,5.20
2022-11-15T23:29:23.619Z,5.20
2022-11-15T23:32:15.484Z,5.10
2022-11-15T23:34:47.328Z,5.10
2022-11-15T23:37:19.041Z,5.10
2022-11-15T23:39:50.952Z,5.10
2022-11-15T23:42:22.669Z,5.10
2022-11-15T23:44:54.432Z,5.10
2022-11-15T23:47:26.583Z,5.10
2022-11-15T23:49:58.295Z,5.10
2022-11-15T23:52:30.248Z,5.10
2022-11-15T23:55:02.087Z,5.10
2022-11-15T23:57:34.010Z,5.10
